Time;durP1;ratioP1;P1;durP2;ratioP2;P2;SDS_P1;SDS_P2;PMS_P1;PMS_P2;Temp;Humidity;BMP_temperature;BMP_pressure;BME280_temperature;BME280_humidity;BME280_pressure;Samples;Min_cycle;Max_cycle;Signal;HPM_P1;HPM_P2
2021/05/13 00:02:11;;;;;;;6.00;2.33;;;;;;;7.89;51.22;101072.94;5012226;28;20033;-69
2021/05/13 00:04:37;;;;;;;5.28;2.35;;;;;;;8.01;50.62;101067.44;5010071;28;20038;-69
2021/05/13 00:07:03;;;;;;;7.55;2.38;;;;;;;8.02;50.62;101069.13;5011162;28;20033;-69
2021/05/13 00:09:30;;;;;;;12.48;2.72;;;;;;;8.00;50.95;101068.31;5010760;28;20124;-69
2021/05/13 00:11:57;;;;;;;6.75;2.97;;;;;;;7.98;50.91;101077.94;5009748;28;20527;-69
2021/05/13 00:14:23;;;;;;;8.90;2.65;;;;;;;7.85;51.07;101066.16;5004485;28;20530;-69
2021/05/13 00:16:48;;;;;;;7.93;2.00;;;;;;;7.97;50.92;101068.41;5023313;28;20033;-69
2021/05/13 00:19:15;;;;;;;5.63;1.67;;;;;;;8.09;51.16;101065.50;5009452;28;20045;-69
2021/05/13 00:21:42;;;;;;;5.90;2.20;;;;;;;8.09;50.59;101070.72;5011923;28;20117;-69
2021/05/13 00:24:10;;;;;;;5.82;2.08;;;;;;;8.03;51.05;101070.00;5008420;28;20033;-70
2021/05/13 00:26:40;;;;;;;5.43;2.03;;;;;;;7.87;51.34;101070.41;5008798;28;20072;-69
2021/05/13 00:29:08;;;;;;;8.57;2.50;;;;;;;7.82;51.32;101072.25;5014506;28;20635;-69
2021/05/13 00:31:33;;;;;;;6.03;2.38;;;;;;;7.91;51.46;101073.78;5007513;28;20028;-69
2021/05/13 00:34:00;;;;;;;4.18;1.92;;;;;;;7.92;51.22;101068.53;5023810;28;20030;-70
2021/05/13 00:36:30;;;;;;;4.22;1.88;;;;;;;7.85;50.99;101069.59;5010171;28;20049;-69
2021/05/13 00:38:56;;;;;;;6.13;2.35;;;;;;;7.91;50.72;101065.97;5009487;28;20026;-70
2021/05/13 00:41:22;;;;;;;5.22;3.22;;;;;;;7.91;51.11;101071.16;5008223;28;20025;-69
2021/05/13 00:43:47;;;;;;;7.30;2.70;;;;;;;7.87;50.87;101064.31;5007401;28;20040;-69
2021/05/13 00:46:13;;;;;;;6.75;2.20;;;;;;;7.86;51.16;101062.63;5008359;28;20092;-69
2021/05/13 00:48:41;;;;;;;9.45;2.53;;;;;;;7.74;51.17;101058.59;5007007;28;20491;-70
2021/05/13 00:51:07;;;;;;;5.75;2.10;;;;;;;7.70;51.05;101052.59;5009420;28;20033;-69
2021/05/13 00:53:33;;;;;;;9.35;2.95;;;;;;;7.73;51.08;101059.47;5005842;28;20040;-70
2021/05/13 00:55:59;;;;;;;5.68;2.30;;;;;;;7.66;51.14;101056.19;5007578;28;20479;-69
2021/05/13 00:58:27;;;;;;;4.78;2.03;;;;;;;7.63;50.96;101053.66;5006968;28;20117;-69
2021/05/13 01:03:21;;;;;;;7.68;2.72;;;;;;;7.58;51.21;101058.13;5008643;28;20037;-69
2021/05/13 01:05:46;;;;;;;8.00;3.25;;;;;;;7.52;51.41;101053.88;5028090;28;20978;-69
2021/05/13 01:08:12;;;;;;;9.70;3.53;;;;;;;7.45;51.74;101054.94;5009537;28;20024;-69
2021/05/13 01:10:38;;;;;;;6.22;2.50;;;;;;;7.55;51.74;101052.97;5007598;28;20041;-69
2021/05/13 01:13:16;;;;;;;5.88;3.30;;;;;;;7.69;51.45;101058.72;5010627;28;20087;-69
2021/05/13 01:15:44;;;;;;;3.90;2.33;;;;;;;7.73;51.31;101062.97;5007058;28;20034;-70
2021/05/13 01:18:22;;;;;;;5.13;2.97;;;;;;;7.81;51.37;101060.16;5006330;28;20037;-70
2021/05/13 01:20:49;;;;;;;5.53;2.58;;;;;;;7.90;50.81;101059.06;5007340;28;20433;-69
2021/05/13 01:23:14;;;;;;;5.75;2.60;;;;;;;7.90;50.92;101053.84;5006333;28;20057;-70
2021/05/13 01:25:47;;;;;;;9.57;3.58;;;;;;;7.99;51.10;101053.63;5008163;28;20061;-69
2021/05/13 01:28:13;;;;;;;8.80;3.08;;;;;;;7.94;50.74;101058.09;5004863;28;20038;-69
2021/05/13 01:30:41;;;;;;;7.68;3.55;;;;;;;7.79;51.07;101045.47;5012352;28;20060;-69
2021/05/13 01:33:06;;;;;;;3.53;2.67;;;;;;;7.79;51.00;101045.47;5004810;28;20034;-69
2021/05/13 01:35:32;;;;;;;7.40;3.63;;;;;;;7.87;50.96;101046.09;5007863;28;20037;-69
2021/05/13 01:38:03;;;;;;;12.57;4.13;;;;;;;7.87;50.68;101049.59;5006989;28;20057;-70
2021/05/13 01:40:29;;;;;;;6.90;3.20;;;;;;;7.73;50.57;101044.75;5006769;28;20037;-69
2021/05/13 01:42:54;;;;;;;8.98;3.80;;;;;;;7.65;50.70;101046.69;5011720;28;20631;-70
2021/05/13 01:45:20;;;;;;;9.32;4.40;;;;;;;7.57;51.52;101047.75;5009437;28;20105;-69
2021/05/13 01:47:45;;;;;;;9.77;3.22;;;;;;;7.65;51.09;101053.63;5006278;28;20057;-69
2021/05/13 01:50:11;;;;;;;10.60;3.08;;;;;;;7.71;51.16;101050.84;5007584;28;20131;-70
2021/05/13 01:52:36;;;;;;;10.18;4.00;;;;;;;7.70;50.90;101047.41;5010649;28;20034;-69
2021/05/13 01:55:02;;;;;;;7.15;3.58;;;;;;;7.67;50.96;101050.09;5005178;28;20434;-70
2021/05/13 01:57:27;;;;;;;6.97;2.95;;;;;;;7.66;50.97;101053.56;5005673;28;20045;-69
2021/05/13 01:59:53;;;;;;;14.25;3.65;;;;;;;7.65;51.03;101048.44;5006510;28;20133;-69
2021/05/13 02:02:21;;;;;;;7.07;2.60;;;;;;;7.63;50.66;101045.00;5007027;28;20043;-70
2021/05/13 02:04:47;;;;;;;15.88;4.28;;;;;;;7.51;50.80;101041.78;5008070;28;20088;-69
2021/05/13 02:07:13;;;;;;;5.93;2.55;;;;;;;7.49;50.91;101038.38;5005939;28;20431;-69
2021/05/13 02:09:38;;;;;;;6.47;3.67;;;;;;;7.47;51.03;101037.53;4992840;28;20116;-69
2021/05/13 02:12:04;;;;;;;14.20;3.75;;;;;;;7.29;51.75;101041.44;5009039;28;20113;-70
2021/05/13 02:14:30;;;;;;;9.95;2.97;;;;;;;7.30;51.83;101037.94;5005183;28;20120;-70
2021/05/13 02:16:56;;;;;;;6.65;3.72;;;;;;;7.26;51.80;101033.69;5008491;28;20045;-69
2021/05/13 02:19:21;;;;;;;5.22;2.97;;;;;;;7.20;51.99;101041.66;5022264;28;20038;-69
2021/05/13 02:21:47;;;;;;;4.78;2.80;;;;;;;7.20;51.85;101039.06;5008587;28;20128;-70
2021/05/13 02:24:12;;;;;;;10.82;2.97;;;;;;;7.24;51.52;101037.22;5006363;28;20512;-69
2021/05/13 02:26:38;;;;;;;6.75;2.58;;;;;;;7.21;51.62;101032.97;5008058;28;20034;-69
2021/05/13 02:29:04;;;;;;;9.48;3.75;;;;;;;7.21;51.68;101025.16;5009799;28;20173;-69
2021/05/13 02:31:29;;;;;;;7.57;3.42;;;;;;;7.18;51.62;101032.19;5007011;28;20100;-69
2021/05/13 02:33:55;;;;;;;9.60;3.38;;;;;;;7.24;51.87;101038.06;5006764;28;20043;-70
2021/05/13 02:36:20;;;;;;;8.52;3.80;;;;;;;7.22;51.74;101032.09;5006666;28;20039;-70
2021/05/13 02:38:46;;;;;;;9.90;4.00;;;;;;;7.12;51.63;101031.44;5005269;28;20127;-69
2021/05/13 02:41:11;;;;;;;7.00;2.67;;;;;;;7.06;51.86;101034.16;5006064;28;20037;-69
2021/05/13 02:43:36;;;;;;;6.18;3.75;;;;;;;7.09;51.86;101036.72;5020800;28;20038;-69
2021/05/13 02:46:02;;;;;;;5.65;3.58;;;;;;;7.10;51.75;101029.75;5006073;28;20044;-70
2021/05/13 02:48:28;;;;;;;4.28;2.47;;;;;;;7.04;51.68;101029.88;5010272;28;20034;-69
2021/05/13 02:50:53;;;;;;;3.83;2.50;;;;;;;7.03;51.30;101023.00;5003080;28;20080;-69
2021/05/13 02:53:18;;;;;;;7.70;2.97;;;;;;;7.02;51.39;101021.28;5004706;28;20492;-69
2021/05/13 02:55:44;;;;;;;6.30;2.67;;;;;;;6.94;51.96;101018.00;5007079;28;20484;-69
2021/05/13 02:58:09;;;;;;;7.82;3.05;;;;;;;6.95;51.77;101011.91;5020615;28;20026;-69
2021/05/13 03:00:47;;;;;;;4.90;2.28;;;;;;;6.90;51.39;101006.81;5003557;28;20116;-69
2021/05/13 03:03:13;;;;;;;8.50;2.78;;;;;;;6.88;51.48;101008.59;5020202;28;20120;-69
2021/05/13 03:05:38;;;;;;;3.00;2.17;;;;;;;6.77;51.46;101003.63;5005740;28;20125;-70
2021/05/13 03:08:04;;;;;;;5.57;2.42;;;;;;;6.62;52.03;100999.66;5009512;28;20555;-69
2021/05/13 03:10:36;;;;;;;4.43;2.63;;;;;;;6.57;52.08;101005.81;5006888;28;20029;-69
2021/05/13 03:13:02;;;;;;;6.17;2.33;;;;;;;6.59;52.24;101006.63;5006070;28;20472;-69
2021/05/13 03:15:29;;;;;;;8.13;2.60;;;;;;;6.72;51.89;100996.84;5003944;28;20096;-69
2021/05/13 03:17:55;;;;;;;4.05;2.67;;;;;;;6.69;52.09;100997.78;5006782;28;20044;-69
2021/05/13 03:20:25;;;;;;;4.70;3.72;;;;;;;6.73;52.14;100994.22;5006843;28;20156;-69
2021/05/13 03:22:55;;;;;;;5.20;3.63;;;;;;;6.88;52.02;100993.84;5007336;28;20075;-69
2021/05/13 03:25:30;;;;;;;6.63;3.88;;;;;;;6.88;52.04;100993.84;5004994;28;20038;-69
2021/05/13 03:28:07;;;;;;;6.68;3.60;;;;;;;6.89;52.52;100998.19;5004347;28;20049;-69
2021/05/13 03:30:35;;;;;;;9.75;3.75;;;;;;;7.00;52.35;101013.53;5020818;28;20026;-69
2021/05/13 03:33:01;;;;;;;6.85;3.47;;;;;;;7.09;52.43;101012.47;5020926;28;20401;-69
2021/05/13 03:35:27;;;;;;;10.98;4.25;;;;;;;7.31;51.84;101002.38;4994594;28;20033;-69
2021/05/13 03:37:53;;;;;;;11.07;3.92;;;;;;;7.40;51.53;101001.31;5003769;28;20030;-70
2021/05/13 03:40:18;;;;;;;7.78;3.13;;;;;;;7.46;51.08;101001.16;5004567;28;20045;-70
2021/05/13 03:42:44;;;;;;;6.35;3.33;;;;;;;7.58;51.06;101006.09;5005080;28;20030;-70
2021/05/13 03:45:09;;;;;;;11.27;3.78;;;;;;;7.60;50.88;101009.53;5010363;28;21050;-70
2021/05/13 03:47:35;;;;;;;9.27;3.33;;;;;;;7.56;50.83;101007.88;5006154;28;20029;-70
2021/05/13 03:50:00;;;;;;;5.00;3.70;;;;;;;7.50;51.20;100998.44;5003725;28;20033;-69
2021/05/13 03:52:26;;;;;;;7.50;3.42;;;;;;;7.62;51.32;100996.47;5008332;28;20026;-69
2021/05/13 03:54:51;;;;;;;14.55;4.03;;;;;;;7.64;51.13;100995.53;5004331;28;20061;-70
2021/05/13 03:57:17;;;;;;;6.97;3.50;;;;;;;7.68;51.14;100991.97;5019855;28;20044;-69
2021/05/13 03:59:43;;;;;;;5.93;3.42;;;;;;;7.76;51.38;100993.50;5006190;28;20037;-69
2021/05/13 04:04:52;;;;;;;9.35;3.92;;;;;;;7.89;50.99;100989.66;5003430;28;20030;-70
2021/05/13 04:07:18;;;;;;;11.35;5.03;;;;;;;7.92;50.98;100984.41;5005681;28;20036;-69
2021/05/13 04:09:43;;;;;;;8.43;4.85;;;;;;;8.13;50.38;100981.19;5003847;28;20030;-69
2021/05/13 04:12:09;;;;;;;7.07;4.28;;;;;;;8.11;50.86;100980.41;5005828;28;20057;-69
2021/05/13 04:14:34;;;;;;;16.08;5.45;;;;;;;8.03;51.28;100982.34;5005833;28;20491;-70
2021/05/13 04:17:01;;;;;;;13.65;5.53;;;;;;;8.04;51.52;100988.41;5020163;28;20041;-70
2021/05/13 04:19:27;;;;;;;8.75;4.85;;;;;;;8.11;51.45;100980.41;5021902;28;20034;-69
2021/05/13 04:21:53;;;;;;;13.73;5.95;;;;;;;8.11;51.35;100989.94;5004650;28;20103;-69
2021/05/13 04:24:18;;;;;;;12.88;4.90;;;;;;;8.17;51.24;100983.72;5020870;28;20034;-69
2021/05/13 04:26:45;;;;;;;14.55;5.60;;;;;;;8.15;50.43;100987.22;5003618;28;20034;-69
2021/05/13 04:29:10;;;;;;;12.73;5.55;;;;;;;8.13;50.88;100978.59;5010054;28;20026;-69
2021/05/13 04:31:36;;;;;;;9.07;6.28;;;;;;;7.74;52.13;100980.53;5010169;28;20033;-69
2021/05/13 04:34:05;;;;;;;9.90;6.05;;;;;;;7.74;52.23;100985.75;5008891;28;20177;-70
2021/05/13 04:36:31;;;;;;;12.50;6.57;;;;;;;8.28;51.42;100984.28;5005578;28;20029;-70
2021/05/13 04:38:57;;;;;;;9.15;5.80;;;;;;;8.31;50.40;100989.38;5008129;28;20816;-69
2021/05/13 04:41:22;;;;;;;14.02;7.00;;;;;;;7.94;52.02;100987.81;5005067;28;20087;-70
2021/05/13 04:43:48;;;;;;;13.23;6.70;;;;;;;8.36;50.67;100984.91;5022109;28;20034;-70
2021/05/13 04:46:15;;;;;;;17.17;7.57;;;;;;;8.21;51.81;100982.75;5008742;28;20217;-70
2021/05/13 04:51:20;;;;;;;16.60;6.97;;;;;;;8.40;51.34;100983.06;5010627;28;20045;-69
2021/05/13 04:53:49;;;;;;;14.20;7.70;;;;;;;8.31;51.41;100986.78;5011399;28;20045;-69
2021/05/13 04:56:16;;;;;;;15.55;8.20;;;;;;;8.33;52.03;100985.00;5005842;28;20372;-69
2021/05/13 04:58:43;;;;;;;10.85;6.47;;;;;;;8.29;51.56;100983.38;5024122;28;20092;-70
2021/05/13 05:01:09;;;;;;;14.35;6.55;;;;;;;8.74;51.10;100980.34;5010499;28;20084;-69
2021/05/13 05:03:34;;;;;;;10.77;7.25;;;;;;;8.67;50.09;100979.66;5007744;28;20033;-70
2021/05/13 05:06:00;;;;;;;15.95;8.60;;;;;;;8.73;49.72;100976.03;5009037;28;20030;-70
2021/05/13 05:08:25;;;;;;;19.13;8.38;;;;;;;8.74;50.80;100969.94;5010720;28;20025;-70
2021/05/13 05:10:51;;;;;;;13.98;8.10;;;;;;;8.83;50.58;100963.56;5008704;28;20040;-69
2021/05/13 05:13:16;;;;;;;13.55;7.03;;;;;;;8.82;50.64;100962.69;5009869;28;20084;-70
2021/05/13 05:15:42;;;;;;;26.98;8.15;;;;;;;8.89;49.67;100963.38;5022558;28;20029;-70
2021/05/13 05:18:07;;;;;;;16.63;7.32;;;;;;;8.74;50.65;100955.13;4989806;28;20476;-69
2021/05/13 05:20:33;;;;;;;19.08;8.82;;;;;;;8.82;50.76;100967.91;4993617;28;20502;-70
2021/05/13 05:22:58;;;;;;;12.85;7.18;;;;;;;9.07;49.56;100967.13;5006898;28;20683;-70
2021/05/13 05:25:24;;;;;;;11.48;7.15;;;;;;;8.85;50.24;100970.44;5009080;28;20475;-70
2021/05/13 05:27:49;;;;;;;17.08;6.30;;;;;;;9.12;49.12;100960.88;5007100;28;20036;-70
2021/05/13 05:30:15;;;;;;;15.88;7.43;;;;;;;8.98;49.68;100961.34;5009410;28;20037;-69
2021/05/13 05:32:41;;;;;;;19.42;6.85;;;;;;;8.98;49.59;100966.56;5002262;28;20038;-70
2021/05/13 05:35:08;;;;;;;12.98;6.75;;;;;;;9.39;48.91;100956.50;5020444;28;20518;-69
2021/05/13 05:37:33;;;;;;;8.52;5.63;;;;;;;9.55;48.03;100953.38;5005753;28;20037;-70
2021/05/13 05:40:02;;;;;;;10.85;5.75;;;;;;;9.67;47.71;100947.72;5006277;28;20034;-70
2021/05/13 05:42:28;;;;;;;15.50;6.47;;;;;;;9.45;48.46;100951.97;5023109;28;20098;-69
2021/05/13 05:44:54;;;;;;;14.30;5.68;;;;;;;10.36;45.80;100949.63;5009571;28;20033;-69
2021/05/13 05:47:19;;;;;;;14.10;4.68;;;;;;;11.73;43.23;100947.56;5021594;28;20036;-69
2021/05/13 05:49:45;;;;;;;15.45;5.80;;;;;;;11.91;41.37;100951.19;5009066;28;20735;-69
2021/05/13 05:52:11;;;;;;;9.75;4.47;;;;;;;11.78;42.50;100952.63;5008731;28;20479;-69
2021/05/13 05:54:37;;;;;;;7.60;3.65;;;;;;;11.66;42.16;100944.38;5005539;28;20068;-69
2021/05/13 05:57:02;;;;;;;13.63;5.45;;;;;;;11.65;42.06;100941.81;5006247;28;20053;-70
2021/05/13 05:59:28;;;;;;;11.43;5.57;;;;;;;11.53;43.37;100934.47;5002921;28;20029;-71
2021/05/13 06:01:53;;;;;;;14.13;5.38;;;;;;;11.40;42.28;100940.25;5006629;28;20038;-70
2021/05/13 06:04:19;;;;;;;15.82;5.75;;;;;;;11.16;42.98;100938.66;5003694;28;20037;-69
2021/05/13 06:06:44;;;;;;;16.45;6.30;;;;;;;11.16;42.85;100936.88;5020589;28;20037;-70
2021/05/13 06:09:10;;;;;;;11.25;4.05;;;;;;;10.57;44.49;100940.97;5003946;28;20103;-69
2021/05/13 06:11:35;;;;;;;7.97;3.97;;;;;;;10.64;44.37;100933.75;5005799;28;20033;-70
2021/05/13 06:14:02;;;;;;;9.40;3.45;;;;;;;10.99;44.23;100921.88;5004459;28;20472;-70
2021/05/13 06:16:28;;;;;;;13.55;5.57;;;;;;;11.09;43.48;100937.22;5006310;28;20400;-70
2021/05/13 06:18:58;;;;;;;11.68;3.70;;;;;;;11.00;43.47;100938.44;5005532;28;20030;-70
2021/05/13 06:21:25;;;;;;;6.88;2.47;;;;;;;11.44;42.73;100928.72;5004610;28;20045;-69
2021/05/13 06:23:54;;;;;;;7.80;3.08;;;;;;;11.44;42.96;100922.63;5003170;28;20046;-68
2021/05/13 06:26:23;;;;;;;4.28;2.70;;;;;;;11.37;42.33;100916.81;5003486;28;20033;-69
2021/05/13 06:28:49;;;;;;;7.70;2.85;;;;;;;11.58;41.79;100924.66;5003332;28;20049;-70
2021/05/13 06:31:14;;;;;;;8.63;2.40;;;;;;;11.22;42.93;100914.84;5021205;28;20114;-69
2021/05/13 06:33:40;;;;;;;5.57;3.30;;;;;;;11.43;42.91;100916.53;5004440;28;20026;-70
2021/05/13 06:36:05;;;;;;;6.25;3.58;;;;;;;11.38;41.34;100915.91;5020094;28;20099;-69
2021/05/13 06:38:31;;;;;;;10.82;4.65;;;;;;;11.56;41.48;100909.03;5002333;28;20776;-69
2021/05/13 06:40:57;;;;;;;11.15;4.80;;;;;;;11.49;42.42;100909.38;5018727;28;20038;-69
2021/05/13 06:43:23;;;;;;;8.05;4.20;;;;;;;11.62;42.03;100913.13;5019850;28;20038;-69
2021/05/13 06:45:49;;;;;;;7.00;4.40;;;;;;;12.14;40.18;100912.59;5004845;28;20037;-69
2021/05/13 06:48:14;;;;;;;13.10;4.57;;;;;;;13.03;38.58;100914.47;5003784;28;20457;-69
2021/05/13 06:50:40;;;;;;;7.10;3.60;;;;;;;13.64;37.62;100920.19;5018109;28;20499;-69
2021/05/13 06:53:07;;;;;;;7.28;3.80;;;;;;;15.17;36.46;100911.69;5004178;28;20648;-69
2021/05/13 06:55:33;;;;;;;9.18;3.75;;;;;;;15.93;33.62;100910.66;5020187;28;20034;-70
2021/05/13 06:57:59;;;;;;;8.43;3.55;;;;;;;16.46;32.72;100910.03;5019110;28;20103;-69
2021/05/13 07:00:25;;;;;;;8.23;3.10;;;;;;;18.77;29.06;100903.78;5030290;23;20037;-71
2021/05/13 07:02:51;;;;;;;8.02;2.90;;;;;;;17.51;30.52;100907.47;5033638;28;20037;-71
2021/05/13 07:05:17;;;;;;;7.60;3.13;;;;;;;16.90;31.42;100906.31;5023384;28;20446;-70
2021/05/13 07:07:43;;;;;;;5.72;3.08;;;;;;;16.02;31.57;100908.41;5030316;28;20029;-70
2021/05/13 07:10:10;;;;;;;6.80;2.38;;;;;;;15.21;33.29;100904.44;5043092;28;20037;-70
2021/05/13 07:12:36;;;;;;;5.65;2.00;;;;;;;13.93;35.21;100911.59;5027089;28;20040;-69
2021/05/13 07:15:03;;;;;;;3.25;0.93;;;;;;;14.72;35.77;100910.81;5025892;28;20041;-69
2021/05/13 07:17:29;;;;;;;5.38;1.70;;;;;;;14.49;35.72;100911.25;5036233;28;20029;-70
2021/05/13 07:19:54;;;;;;;6.82;2.80;;;;;;;14.72;35.70;100908.19;5023674;28;20080;-70
2021/05/13 07:22:20;;;;;;;6.82;2.35;;;;;;;14.72;35.39;100908.19;5024222;28;20140;-69
2021/05/13 07:24:48;;;;;;;6.70;2.15;;;;;;;14.80;35.98;100906.88;5027925;28;20034;-69
2021/05/13 07:27:14;;;;;;;6.03;1.70;;;;;;;14.18;36.09;100918.16;5027493;28;20030;-69
2021/05/13 07:29:40;;;;;;;7.30;1.80;;;;;;;14.37;35.78;100910.13;5027587;28;20548;-68
2021/05/13 07:32:07;;;;;;;5.45;1.48;;;;;;;15.69;33.12;100902.47;5039084;28;20032;-69
2021/05/13 07:34:34;;;;;;;7.38;2.08;;;;;;;16.57;31.81;100905.75;5025354;28;20025;-70
2021/05/13 07:37:02;;;;;;;5.55;1.65;;;;;;;15.51;33.73;100903.63;5022124;28;20480;-69
2021/05/13 07:39:27;;;;;;;4.72;1.23;;;;;;;15.46;34.62;100914.44;5042665;28;20021;-69
2021/05/13 07:41:53;;;;;;;1.77;1.00;;;;;;;15.33;34.81;100910.84;5025505;28;20048;-71
2021/05/13 07:44:18;;;;;;;4.72;1.92;;;;;;;15.80;33.81;100907.94;5026899;28;20385;-69
2021/05/13 07:46:44;;;;;;;5.43;1.30;;;;;;;16.33;33.02;100908.19;5044097;28;20045;-68
2021/05/13 07:49:10;;;;;;;7.93;1.50;;;;;;;16.79;31.62;100913.13;5021755;28;20418;-71
2021/05/13 07:51:36;;;;;;;2.72;1.08;;;;;;;16.66;32.06;100912.22;5028405;28;20025;-69
2021/05/13 07:54:03;;;;;;;10.60;1.88;;;;;;;15.68;32.74;100905.19;5027659;28;20092;-69
2021/05/13 07:56:28;;;;;;;1.88;0.80;;;;;;;16.03;32.99;100904.84;5026791;28;20034;-69
2021/05/13 07:58:53;;;;;;;3.58;1.40;;;;;;;15.64;33.07;100907.19;5028500;28;20563;-71
2021/05/13 08:01:19;;;;;;;2.08;1.20;;;;;;;16.90;32.13;100908.97;5041825;28;20419;-69
2021/05/13 08:03:44;;;;;;;2.58;1.23;;;;;;;17.17;30.59;100901.81;5028639;28;20033;-69
2021/05/13 08:06:11;;;;;;;3.60;1.45;;;;;;;16.56;31.38;100903.22;5031757;28;20045;-69
2021/05/13 08:08:37;;;;;;;7.45;0.60;;;;;;;17.26;30.72;100907.44;5045702;28;20506;-70
2021/05/13 08:11:02;;;;;;;3.50;0.80;;;;;;;18.57;28.60;100909.72;5044362;28;20032;-69
2021/05/13 08:13:30;;;;;;;6.07;1.20;;;;;;;20.42;26.63;100901.69;5031964;28;20036;-70
2021/05/13 08:15:55;;;;;;;4.28;1.30;;;;;;;21.22;25.22;100911.88;5030852;28;20519;-70
2021/05/13 08:18:21;;;;;;;2.35;0.75;;;;;;;21.96;24.09;100910.84;5048646;28;20048;-69
2021/05/13 08:20:47;;;;;;;3.08;0.88;;;;;;;22.83;22.73;100912.84;5027754;28;20041;-70
2021/05/13 08:23:12;;;;;;;5.95;1.20;;;;;;;22.30;23.52;100913.19;5026830;28;20064;-69
2021/05/13 08:25:38;;;;;;;3.80;0.75;;;;;;;20.98;25.51;100911.28;5026934;28;20036;-70
2021/05/13 08:28:04;;;;;;;7.30;1.73;;;;;;;21.60;24.74;100907.78;5028286;28;20479;-69
2021/05/13 08:30:29;;;;;;;3.00;1.20;;;;;;;22.25;23.23;100908.28;5026682;28;20576;-69
2021/05/13 08:32:55;;;;;;;5.43;1.10;;;;;;;21.72;23.76;100906.69;5026200;28;20037;-69
2021/05/13 08:35:20;;;;;;;4.70;1.00;;;;;;;22.42;22.98;100912.06;5026013;28;20071;-70
2021/05/13 08:37:46;;;;;;;4.68;1.02;;;;;;;21.40;24.62;100905.94;5024909;28;20041;-69
2021/05/13 08:40:11;;;;;;;4.22;1.23;;;;;;;21.61;24.30;100903.28;5028130;28;20033;-70
2021/05/13 08:42:38;;;;;;;2.92;0.90;;;;;;;20.78;25.45;100900.47;5030254;28;20521;-70
2021/05/13 08:45:04;;;;;;;6.03;1.75;;;;;;;21.78;24.07;100894.69;5027499;28;20128;-71
2021/05/13 08:47:31;;;;;;;2.92;1.00;;;;;;;21.21;25.03;100904.84;5021872;28;20384;-70
2021/05/13 08:50:01;;;;;;;4.40;1.10;;;;;;;20.74;24.68;100899.03;5023761;28;20550;-70
2021/05/13 08:52:27;;;;;;;5.93;1.70;;;;;;;21.44;23.66;100902.03;5023001;28;20036;-69
2021/05/13 08:54:58;;;;;;;3.05;1.42;;;;;;;21.48;24.21;100893.69;5027311;28;20034;-69
2021/05/13 08:57:25;;;;;;;2.60;1.15;;;;;;;21.17;24.61;100890.13;5041892;28;20033;-71
2021/05/13 08:59:51;;;;;;;2.95;1.85;;;;;;;21.26;25.08;100884.03;5024847;28;20071;-70
2021/05/13 09:02:18;;;;;;;5.00;0.88;;;;;;;20.71;24.91;100888.69;5028385;28;20044;-69
2021/05/13 09:04:48;;;;;;;2.58;1.48;;;;;;;20.76;25.63;100873.19;5009598;28;20513;-70
2021/05/13 09:07:18;;;;;;;7.32;1.52;;;;;;;19.58;26.91;100888.00;5026470;28;20608;-70
2021/05/13 09:10:00;;;;;;;5.25;1.40;;;;;;;19.28;27.23;100881.47;5028447;28;20146;-70
2021/05/13 09:12:29;;;;;;;4.53;1.90;;;;;;;17.91;29.58;100890.63;5026801;28;20117;-70
2021/05/13 09:15:18;;;;;;;4.60;1.42;;;;;;;18.25;30.20;100887.28;5030905;28;20371;-70
2021/05/13 09:17:44;;;;;;;2.85;1.73;;;;;;;17.84;29.49;100892.84;5047717;28;20049;-70
2021/05/13 09:20:31;;;;;;;7.47;1.70;;;;;;;16.07;31.42;100899.28;5046755;28;20037;-69
2021/05/13 09:23:12;;;;;;;4.53;1.83;;;;;;;16.73;31.50;100895.06;5029500;28;20040;-70
2021/05/13 09:25:38;;;;;;;2.08;1.08;;;;;;;17.04;32.44;100898.31;5035247;28;20147;-69
2021/05/13 09:28:03;;;;;;;2.75;1.08;;;;;;;16.32;32.69;100893.28;5032102;28;20034;-69
2021/05/13 09:30:29;;;;;;;2.92;1.50;;;;;;;16.37;32.88;100898.28;5029930;28;20094;-70
2021/05/13 09:33:01;;;;;;;4.15;1.23;;;;;;;16.56;32.22;100900.59;5044559;28;20044;-69
2021/05/13 09:35:32;;;;;;;3.08;1.13;;;;;;;16.01;32.37;100891.75;5028840;28;20609;-69
2021/05/13 09:38:09;;;;;;;4.00;1.42;;;;;;;15.54;33.96;100893.72;5027981;28;20029;-69
2021/05/13 09:40:43;;;;;;;4.05;1.13;;;;;;;15.15;33.33;100897.78;5028774;28;20108;-68
2021/05/13 09:43:13;;;;;;;5.05;1.48;;;;;;;16.46;32.60;100881.00;5028531;28;20055;-69
2021/05/13 09:45:49;;;;;;;2.90;1.08;;;;;;;16.15;32.66;100888.25;5031274;28;20048;-69
2021/05/13 09:48:31;;;;;;;3.47;0.80;;;;;;;16.29;32.96;100888.22;5028287;28;20029;-70
2021/05/13 09:51:14;;;;;;;2.95;0.90;;;;;;;15.84;32.37;100889.28;5030736;28;20069;-69
2021/05/13 09:53:39;;;;;;;1.65;1.00;;;;;;;16.55;31.68;100888.31;5030181;28;20033;-70
2021/05/13 09:56:23;;;;;;;2.35;0.65;;;;;;;15.37;32.97;100885.97;5032328;28;20090;-69
2021/05/13 09:58:48;;;;;;;3.10;0.70;;;;;;;16.30;31.61;100874.09;5043052;28;20641;-70
2021/05/13 10:01:14;;;;;;;5.55;1.70;;;;;;;16.10;32.60;100885.91;5028123;28;20029;-70
2021/05/13 10:03:40;;;;;;;2.40;1.70;;;;;;;16.66;31.88;100882.34;5027148;28;20487;-69
2021/05/13 10:06:10;;;;;;;4.38;2.00;;;;;;;15.27;32.79;100890.13;5031453;28;20049;-69
2021/05/13 10:08:36;;;;;;;2.60;1.00;;;;;;;15.48;32.28;100894.13;5030433;28;20037;-69
2021/05/13 10:11:04;;;;;;;1.83;0.85;;;;;;;14.86;33.75;100886.31;5027389;28;20132;-70
2021/05/13 10:13:31;;;;;;;7.30;1.92;;;;;;;14.89;35.12;100893.19;5030676;28;20041;-68
2021/05/13 10:15:57;;;;;;;2.53;1.48;;;;;;;15.35;33.58;100893.16;5029543;28;20044;-68
2021/05/13 10:18:36;;;;;;;5.13;2.55;;;;;;;15.29;34.12;100893.50;5029365;28;20066;-70
2021/05/13 10:21:26;;;;;;;3.13;1.27;;;;;;;16.05;32.92;100884.53;5031740;28;20061;-69
2021/05/13 10:23:56;;;;;;;3.72;1.83;;;;;;;17.04;30.98;100893.03;5027816;28;20125;-68
2021/05/13 10:26:32;;;;;;;2.92;1.83;;;;;;;16.17;31.55;100889.84;5029229;28;20037;-71
2021/05/13 10:28:58;;;;;;;5.38;2.22;;;;;;;16.07;31.48;100890.53;5042677;28;20042;-69
2021/05/13 10:32:03;;;;;;;5.68;2.03;;;;;;;15.29;33.75;100888.25;5025079;28;20048;-68
2021/05/13 10:34:40;;;;;;;4.43;1.60;;;;;;;15.72;32.70;100885.63;5000983;28;20036;-70
2021/05/13 10:37:17;;;;;;;3.95;1.80;;;;;;;16.03;33.15;100881.13;5026316;28;20560;-69
2021/05/13 10:42:43;;;;;;;5.13;1.13;;;;;;;15.65;33.91;100879.06;5031491;28;20037;-69
2021/05/13 10:45:23;;;;;;;3.92;2.00;;;;;;;14.59;34.58;100883.50;5029367;28;20029;-72
2021/05/13 10:48:23;;;;;;;2.60;2.13;;;;;;;14.94;34.53;100876.19;5028135;28;20025;-68
2021/05/13 10:50:58;;;;;;;7.55;1.80;;;;;;;15.01;33.18;100879.31;5030433;28;20411;-68
2021/05/13 10:53:45;;;;;;;2.78;1.30;;;;;;;14.67;34.74;100875.16;5028720;28;20370;-70
2021/05/13 10:56:33;;;;;;;4.13;1.65;;;;;;;14.65;34.93;100874.41;5034636;28;20028;-71
2021/05/13 10:59:10;;;;;;;3.47;1.95;;;;;;;15.33;34.57;100873.97;5027702;28;20021;-70
2021/05/13 11:01:52;;;;;;;4.05;2.58;;;;;;;15.32;33.52;100865.19;5026523;28;20038;-70
2021/05/13 11:04:21;;;;;;;;;;;;;;;14.81;34.27;100871.72;5030086;28;20095;-69
2021/05/13 11:06:53;;;;;;;4.88;2.80;;;;;;;15.88;33.13;100862.66;5028520;28;19913;-69
2021/05/13 11:09:37;;;;;;;7.65;3.88;;;;;;;15.41;32.83;100865.59;5028765;28;20662;-69
2021/05/13 11:12:11;;;;;;;3.58;1.95;;;;;;;14.90;34.87;100871.19;5031774;28;20045;-68
2021/05/13 11:15:17;;;;;;;6.18;3.83;;;;;;;15.32;33.52;100867.00;5028415;28;20041;-69
2021/05/13 11:17:52;;;;;;;5.03;2.55;;;;;;;14.84;35.83;100876.84;5042654;28;20034;-68
2021/05/13 11:20:24;;;;;;;4.93;2.83;;;;;;;14.32;35.50;100876.19;5039811;28;20136;-69
2021/05/13 11:22:54;;;;;;;3.33;1.50;;;;;;;15.39;33.40;100865.66;5027159;28;20068;-69
2021/05/13 11:25:20;;;;;;;8.90;2.72;;;;;;;15.74;33.46;100863.50;5026858;28;20090;-69
2021/05/13 11:27:46;;;;;;;2.60;1.38;;;;;;;15.44;33.51;100874.16;5025606;28;20045;-71
2021/05/13 11:30:13;;;;;;;4.65;1.73;;;;;;;15.20;33.63;100862.44;5031345;28;20025;-71
2021/05/13 11:32:38;;;;;;;2.05;1.73;;;;;;;14.41;34.90;100863.47;5039220;28;20245;-67
2021/05/13 11:35:05;;;;;;;5.88;2.40;;;;;;;14.55;35.77;100866.19;5024203;28;20487;-68
2021/05/13 11:37:34;;;;;;;2.42;1.30;;;;;;;15.19;34.05;100872.09;5040548;28;20458;-70
2021/05/13 11:40:21;;;;;;;3.72;1.83;;;;;;;14.39;35.01;100862.69;5024766;28;20041;-69
2021/05/13 11:42:47;;;;;;;3.63;1.83;;;;;;;13.27;36.93;100867.78;5025506;28;20037;-68